Heathsville, Virginia
Current Conditions -  °F | °C
As of 9:53 AM on Saturday 25 Oct 2014 (Local Time) from KNUI Reporting Station
Clear Clear  
Wind Chill: 59°   Ceiling: Unl
Heat Index: 59°   Visibility: 10mi
Dew Point: 42°   Wind: 3mph
Humidity: 53%   Direction: 280°W
Pressure: 29.97"   Gusts: NA
Location:  37.92°N, 76.47°W
Report Text: KNUI 251353Z AUTO 28003KT 10SM CLR 15/06 A2997 RMK AO2 SLP148 T01500056 $
Loading
Personal Weather Stations






























Interactive Weather Map
Tropical Storm Tracking
New forecast layout! Learn more

10-Day Weather Forecast

Advertisements
Track Severe Weather on mobile